sensor_id;sensor_type;location;lat;lon;timestamp;pressure;altitude;pressure_sealevel;temperature;humidity
71976;BME280;68326;52.124;5.424;2023-03-25T00:02:19;100108.22;;;9.70;78.18
71976;BME280;68326;52.124;5.424;2023-03-25T00:04:53;100123.91;;;9.69;77.57
71976;BME280;68326;52.124;5.424;2023-03-25T00:07:20;100113.63;;;9.67;78.27
71976;BME280;68326;52.124;5.424;2023-03-25T00:09:48;100110.16;;;9.67;78.02
71976;BME280;68326;52.124;5.424;2023-03-25T00:12:15;100114.59;;;9.65;77.74
71976;BME280;68326;52.124;5.424;2023-03-25T00:14:44;100111.25;;;9.63;78.49
71976;BME280;68326;52.124;5.424;2023-03-25T00:17:21;100113.97;;;9.61;78.69
71976;BME280;68326;52.124;5.424;2023-03-25T00:19:47;100109.78;;;9.58;78.64
71976;BME280;68326;52.124;5.424;2023-03-25T00:22:17;100115.00;;;9.58;78.73
71976;BME280;68326;52.124;5.424;2023-03-25T00:24:44;100118.41;;;9.59;78.50
71976;BME280;68326;52.124;5.424;2023-03-25T00:27:11;100102.91;;;9.57;78.74
71976;BME280;68326;52.124;5.424;2023-03-25T00:29:40;100099.50;;;9.57;79.11
71976;BME280;68326;52.124;5.424;2023-03-25T00:32:07;100106.53;;;9.55;78.77
71976;BME280;68326;52.124;5.424;2023-03-25T00:34:33;100103.19;;;9.53;79.44
71976;BME280;68326;52.124;5.424;2023-03-25T00:37:00;100106.63;;;9.53;79.73
71976;BME280;68326;52.124;5.424;2023-03-25T00:39:29;100108.47;;;9.51;79.52
71976;BME280;68326;52.124;5.424;2023-03-25T00:41:56;100109.22;;;9.53;79.54
71976;BME280;68326;52.124;5.424;2023-03-25T00:44:22;100101.41;;;9.53;79.49
71976;BME280;68326;52.124;5.424;2023-03-25T00:46:49;100113.50;;;9.54;78.53
71976;BME280;68326;52.124;5.424;2023-03-25T00:49:16;100101.50;;;9.52;79.07
71976;BME280;68326;52.124;5.424;2023-03-25T00:51:43;100123.13;;;9.52;79.51
71976;BME280;68326;52.124;5.424;2023-03-25T00:54:18;100109.28;;;9.52;79.38
71976;BME280;68326;52.124;5.424;2023-03-25T00:56:48;100112.75;;;9.52;78.73
71976;BME280;68326;52.124;5.424;2023-03-25T00:59:15;100114.41;;;9.53;78.56
71976;BME280;68326;52.124;5.424;2023-03-25T01:01:42;100113.66;;;9.51;79.17
71976;BME280;68326;52.124;5.424;2023-03-25T01:04:08;100121.44;;;9.51;78.52
71976;BME280;68326;52.124;5.424;2023-03-25T01:06:39;100121.44;;;9.51;78.55
71976;BME280;68326;52.124;5.424;2023-03-25T01:09:11;100114.59;;;9.50;78.90
71976;BME280;68326;52.124;5.424;2023-03-25T01:11:42;100113.00;;;9.48;78.36
71976;BME280;68326;52.124;5.424;2023-03-25T01:14:18;100116.34;;;9.50;77.63
71976;BME280;68326;52.124;5.424;2023-03-25T01:16:45;100110.31;;;9.49;77.58
71976;BME280;68326;52.124;5.424;2023-03-25T01:19:12;100112.81;;;9.51;78.10
71976;BME280;68326;52.124;5.424;2023-03-25T01:21:39;100102.44;;;9.51;77.91
71976;BME280;68326;52.124;5.424;2023-03-25T01:24:09;100111.13;;;9.50;77.46
71976;BME280;68326;52.124;5.424;2023-03-25T01:26:37;100115.44;;;9.51;77.35
71976;BME280;68326;52.124;5.424;2023-03-25T01:29:06;100111.13;;;9.50;77.31
71976;BME280;68326;52.124;5.424;2023-03-25T01:31:32;100105.94;;;9.50;78.32
71976;BME280;68326;52.124;5.424;2023-03-25T01:33:59;100095.75;;;9.47;78.46
71976;BME280;68326;52.124;5.424;2023-03-25T01:36:26;100103.63;;;9.45;78.15
71976;BME280;68326;52.124;5.424;2023-03-25T01:38:57;100102.03;;;9.43;78.57
71976;BME280;68326;52.124;5.424;2023-03-25T01:41:26;100101.28;;;9.41;79.21
71976;BME280;68326;52.124;5.424;2023-03-25T01:46:40;100089.59;;;9.33;79.91
71976;BME280;68326;52.124;5.424;2023-03-25T01:49:40;100094.88;;;9.32;79.94
71976;BME280;68326;52.124;5.424;2023-03-25T01:52:23;100102.25;;;9.24;80.88
71976;BME280;68326;52.124;5.424;2023-03-25T01:54:51;100096.50;;;9.18;81.38
71976;BME280;68326;52.124;5.424;2023-03-25T01:57:20;100093.16;;;9.16;82.22
71976;BME280;68326;52.124;5.424;2023-03-25T01:59:50;100107.22;;;9.12;82.38
71976;BME280;68326;52.124;5.424;2023-03-25T02:02:17;100095.41;;;9.07;83.45
71976;BME280;68326;52.124;5.424;2023-03-25T02:07:17;100099.56;;;8.95;83.72
71976;BME280;68326;52.124;5.424;2023-03-25T02:09:45;100087.47;;;8.94;83.91
71976;BME280;68326;52.124;5.424;2023-03-25T02:12:11;100093.50;;;8.94;84.07
71976;BME280;68326;52.124;5.424;2023-03-25T02:14:38;100095.34;;;8.92;84.12
71976;BME280;68326;52.124;5.424;2023-03-25T02:20:20;100100.78;;;8.88;84.18
71976;BME280;68326;52.124;5.424;2023-03-25T02:28:47;100096.47;;;8.72;86.26
71976;BME280;68326;52.124;5.424;2023-03-25T02:37:04;100104.66;;;8.49;88.90
71976;BME280;68326;52.124;5.424;2023-03-25T02:39:40;100098.88;;;8.44;90.01
71976;BME280;68326;52.124;5.424;2023-03-25T02:42:25;100092.94;;;8.42;90.15
71976;BME280;68326;52.124;5.424;2023-03-25T02:45:02;100086.06;;;8.41;89.83
71976;BME280;68326;52.124;5.424;2023-03-25T02:47:34;100086.91;;;8.41;90.55
71976;BME280;68326;52.124;5.424;2023-03-25T02:50:06;100086.00;;;8.42;89.83
71976;BME280;68326;52.124;5.424;2023-03-25T02:52:41;100096.13;;;8.47;90.00
71976;BME280;68326;52.124;5.424;2023-03-25T02:55:10;100091.63;;;8.50;88.97
71976;BME280;68326;52.124;5.424;2023-03-25T02:57:41;100087.06;;;8.54;89.29
71976;BME280;68326;52.124;5.424;2023-03-25T03:00:10;100087.75;;;8.57;88.94
71976;BME280;68326;52.124;5.424;2023-03-25T03:02:44;100093.63;;;8.61;88.45
71976;BME280;68326;52.124;5.424;2023-03-25T03:11:37;100066.50;;;8.67;88.66
71976;BME280;68326;52.124;5.424;2023-03-25T03:19:44;100069.84;;;8.69;88.46
71976;BME280;68326;52.124;5.424;2023-03-25T03:24:46;100065.25;;;8.74;88.52
71976;BME280;68326;52.124;5.424;2023-03-25T03:27:28;100057.38;;;8.75;88.47
71976;BME280;68326;52.124;5.424;2023-03-25T03:30:09;100063.50;;;8.74;88.88
71976;BME280;68326;52.124;5.424;2023-03-25T03:32:49;100066.09;;;8.74;88.58
71976;BME280;68326;52.124;5.424;2023-03-25T03:35:23;100065.41;;;8.71;89.21
71976;BME280;68326;52.124;5.424;2023-03-25T03:37:56;100056.81;;;8.70;89.08
71976;BME280;68326;52.124;5.424;2023-03-25T03:40:27;100065.50;;;8.69;88.57
71976;BME280;68326;52.124;5.424;2023-03-25T03:43:01;100056.88;;;8.69;89.09
71976;BME280;68326;52.124;5.424;2023-03-25T03:45:33;100061.91;;;8.72;89.77
71976;BME280;68326;52.124;5.424;2023-03-25T03:48:06;100054.97;;;8.72;89.18
71976;BME280;68326;52.124;5.424;2023-03-25T03:50:40;100062.75;;;8.72;88.73
71976;BME280;68326;52.124;5.424;2023-03-25T03:53:43;100055.78;;;8.73;88.20
71976;BME280;68326;52.124;5.424;2023-03-25T03:58:35;100054.19;;;8.70;89.24
71976;BME280;68326;52.124;5.424;2023-03-25T04:01:11;100048.44;;;8.65;89.71
71976;BME280;68326;52.124;5.424;2023-03-25T04:03:49;100044.91;;;8.66;89.66
71976;BME280;68326;52.124;5.424;2023-03-25T04:06:29;100046.69;;;8.66;89.40
71976;BME280;68326;52.124;5.424;2023-03-25T04:11:57;100037.41;;;8.62;90.42
71976;BME280;68326;52.124;5.424;2023-03-25T04:14:25;100041.84;;;8.60;90.64
71976;BME280;68326;52.124;5.424;2023-03-25T04:16:53;100042.66;;;8.60;90.29
71976;BME280;68326;52.124;5.424;2023-03-25T04:19:20;100043.59;;;8.59;90.42
71976;BME280;68326;52.124;5.424;2023-03-25T04:21:47;100034.06;;;8.60;90.57
71976;BME280;68326;52.124;5.424;2023-03-25T04:24:14;100035.06;;;8.57;90.36
71976;BME280;68326;52.124;5.424;2023-03-25T04:26:42;100033.38;;;8.56;91.68
71976;BME280;68326;52.124;5.424;2023-03-25T04:29:08;100036.91;;;8.55;91.08
71976;BME280;68326;52.124;5.424;2023-03-25T04:31:35;100045.50;;;8.55;90.63
71976;BME280;68326;52.124;5.424;2023-03-25T04:34:03;100031.22;;;8.48;92.07
71976;BME280;68326;52.124;5.424;2023-03-25T04:36:30;100030.38;;;8.48;92.39
71976;BME280;68326;52.124;5.424;2023-03-25T04:39:03;100041.94;;;8.42;92.09
71976;BME280;68326;52.124;5.424;2023-03-25T04:41:30;100021.41;;;8.37;92.61
71976;BME280;68326;52.124;5.424;2023-03-25T04:43:57;100023.13;;;8.37;93.43
71976;BME280;68326;52.124;5.424;2023-03-25T04:46:24;100040.63;;;8.33;93.09
71976;BME280;68326;52.124;5.424;2023-03-25T04:48:51;100037.13;;;8.34;93.57
71976;BME280;68326;52.124;5.424;2023-03-25T04:51:19;100061.38;;;8.33;94.00
71976;BME280;68326;52.124;5.424;2023-03-25T04:53:45;100055.44;;;8.31;93.45
71976;BME280;68326;52.124;5.424;2023-03-25T04:56:15;100060.69;;;8.30;94.23
71976;BME280;68326;52.124;5.424;2023-03-25T04:58:43;100064.97;;;8.31;93.42
71976;BME280;68326;52.124;5.424;2023-03-25T05:01:23;100068.41;;;8.31;92.97
71976;BME280;68326;52.124;5.424;2023-03-25T05:04:00;100061.44;;;8.32;94.14
71976;BME280;68326;52.124;5.424;2023-03-25T05:06:36;100068.28;;;8.33;92.29
71976;BME280;68326;52.124;5.424;2023-03-25T05:09:05;100074.22;;;8.35;93.53
71976;BME280;68326;52.124;5.424;2023-03-25T05:11:34;100068.97;;;8.36;93.15
71976;BME280;68326;52.124;5.424;2023-03-25T05:14:02;100070.66;;;8.37;92.15
71976;BME280;68326;52.124;5.424;2023-03-25T05:16:28;100064.72;;;8.35;92.58
71976;BME280;68326;52.124;5.424;2023-03-25T05:18:55;100066.47;;;8.35;92.89
71976;BME280;68326;52.124;5.424;2023-03-25T05:21:22;100067.38;;;8.34;92.93
71976;BME280;68326;52.124;5.424;2023-03-25T05:23:48;100071.00;;;8.31;92.78
71976;BME280;68326;52.124;5.424;2023-03-25T05:26:15;100073.59;;;8.31;92.56
71976;BME280;68326;52.124;5.424;2023-03-25T05:28:41;100066.63;;;8.32;91.87
71976;BME280;68326;52.124;5.424;2023-03-25T05:31:08;100074.34;;;8.33;92.65
71976;BME280;68326;52.124;5.424;2023-03-25T05:33:36;100073.59;;;8.31;92.38
71976;BME280;68326;52.124;5.424;2023-03-25T05:36:14;100065.88;;;8.30;92.53
71976;BME280;68326;52.124;5.424;2023-03-25T05:38:43;100071.00;;;8.31;92.78
71976;BME280;68326;52.124;5.424;2023-03-25T05:41:12;100064.13;;;8.30;91.97
71976;BME280;68326;52.124;5.424;2023-03-25T05:43:42;100060.63;;;8.31;92.33
71976;BME280;68326;52.124;5.424;2023-03-25T05:46:14;100074.41;;;8.32;91.91
71976;BME280;68326;52.124;5.424;2023-03-25T05:48:40;100073.41;;;8.34;91.66
71976;BME280;68326;52.124;5.424;2023-03-25T05:51:16;100075.75;;;8.39;91.40
71976;BME280;68326;52.124;5.424;2023-03-25T05:53:45;100084.22;;;8.43;91.20
71976;BME280;68326;52.124;5.424;2023-03-25T05:56:19;100078.97;;;8.44;90.81
71976;BME280;68326;52.124;5.424;2023-03-25T05:58:48;100082.31;;;8.46;90.84
71976;BME280;68326;52.124;5.424;2023-03-25T06:01:16;100086.66;;;8.46;90.71
71976;BME280;68326;52.124;5.424;2023-03-25T06:03:59;100085.81;;;8.45;89.92
71976;BME280;68326;52.124;5.424;2023-03-25T06:06:29;100089.16;;;8.47;89.70
71976;BME280;68326;52.124;5.424;2023-03-25T06:08:57;100090.00;;;8.48;89.46
71976;BME280;68326;52.124;5.424;2023-03-25T06:11:24;100102.97;;;8.48;89.40
71976;BME280;68326;52.124;5.424;2023-03-25T06:13:51;100090.00;;;8.48;88.98
71976;BME280;68326;52.124;5.424;2023-03-25T06:16:20;100102.88;;;8.49;89.12
71976;BME280;68326;52.124;5.424;2023-03-25T06:18:49;100094.09;;;8.52;88.80
71976;BME280;68326;52.124;5.424;2023-03-25T06:21:22;100100.91;;;8.54;89.11
71976;BME280;68326;52.124;5.424;2023-03-25T06:23:49;100091.34;;;8.55;88.88
71976;BME280;68326;52.124;5.424;2023-03-25T06:26:16;100098.31;;;8.54;89.16
71976;BME280;68326;52.124;5.424;2023-03-25T06:28:43;100093.03;;;8.56;89.26
71976;BME280;68326;52.124;5.424;2023-03-25T06:31:14;100087.75;;;8.57;89.12
71976;BME280;68326;52.124;5.424;2023-03-25T06:33:43;100097.63;;;8.67;89.21
71976;BME280;68326;52.124;5.424;2023-03-25T06:36:11;100093.59;;;8.77;88.75
71976;BME280;68326;52.124;5.424;2023-03-25T06:38:38;100092.44;;;8.83;88.45
71976;BME280;68326;52.124;5.424;2023-03-25T06:41:05;100095.38;;;8.76;88.27
71976;BME280;68326;52.124;5.424;2023-03-25T06:43:33;100106.91;;;8.71;88.47
71976;BME280;68326;52.124;5.424;2023-03-25T06:45:59;100096.97;;;8.63;88.67
71976;BME280;68326;52.124;5.424;2023-03-25T06:48:26;100106.91;;;8.55;90.43
71976;BME280;68326;52.124;5.424;2023-03-25T06:50:52;100116.69;;;8.50;90.87
71976;BME280;68326;52.124;5.424;2023-03-25T06:53:19;100105.81;;;8.43;92.08
71976;BME280;68326;52.124;5.424;2023-03-25T06:55:46;100113.13;;;8.35;91.96
71976;BME280;68326;52.124;5.424;2023-03-25T06:58:12;100117.53;;;8.33;92.18
71976;BME280;68326;52.124;5.424;2023-03-25T07:00:39;100116.97;;;8.28;93.55
71976;BME280;68326;52.124;5.424;2023-03-25T07:03:05;100118.78;;;8.26;93.32
71976;BME280;68326;52.124;5.424;2023-03-25T07:05:32;100119.88;;;8.22;93.87
71976;BME280;68326;52.124;5.424;2023-03-25T07:07:59;100127.81;;;8.19;94.35
71976;BME280;68326;52.124;5.424;2023-03-25T07:10:26;100117.53;;;8.17;94.92
71976;BME280;68326;52.124;5.424;2023-03-25T07:12:53;100128.66;;;8.19;95.51
71976;BME280;68326;52.124;5.424;2023-03-25T07:15:19;100122.03;;;8.13;93.77
71976;BME280;68326;52.124;5.424;2023-03-25T07:17:46;100117.16;;;8.07;94.94
71976;BME280;68326;52.124;5.424;2023-03-25T07:20:15;100126.75;;;8.05;96.09
71976;BME280;68326;52.124;5.424;2023-03-25T07:22:42;100137.13;;;8.05;96.21
71976;BME280;68326;52.124;5.424;2023-03-25T07:25:09;100128.53;;;8.05;96.66
71976;BME280;68326;52.124;5.424;2023-03-25T07:27:36;100129.84;;;7.96;96.76
71976;BME280;68326;52.124;5.424;2023-03-25T07:30:03;100134.78;;;8.01;97.28
71976;BME280;68326;52.124;5.424;2023-03-25T07:32:30;100129.44;;;8.04;96.77
71976;BME280;68326;52.124;5.424;2023-03-25T07:34:56;100138.13;;;8.03;96.38
71976;BME280;68326;52.124;5.424;2023-03-25T07:37:23;100141.47;;;8.05;96.15
71976;BME280;68326;52.124;5.424;2023-03-25T07:39:49;100128.22;;;8.11;96.20
71976;BME280;68326;52.124;5.424;2023-03-25T07:42:16;100139.25;;;8.14;96.34
71976;BME280;68326;52.124;5.424;2023-03-25T07:44:43;100128.66;;;8.19;95.73
71976;BME280;68326;52.124;5.424;2023-03-25T07:47:09;100140.22;;;8.29;96.24
71976;BME280;68326;52.124;5.424;2023-03-25T07:49:36;100145.16;;;8.34;95.77
71976;BME280;68326;52.124;5.424;2023-03-25T07:52:06;100145.75;;;8.39;95.94
71976;BME280;68326;52.124;5.424;2023-03-25T07:54:33;100136.16;;;8.41;94.88
71976;BME280;68326;52.124;5.424;2023-03-25T07:56:59;100145.63;;;8.42;94.94
71976;BME280;68326;52.124;5.424;2023-03-25T07:59:26;100135.19;;;8.44;95.67
71976;BME280;68326;52.124;5.424;2023-03-25T08:01:55;100143.03;;;8.42;95.29
71976;BME280;68326;52.124;5.424;2023-03-25T08:04:22;100138.81;;;8.40;95.20
71976;BME280;68326;52.124;5.424;2023-03-25T08:06:48;100144.00;;;8.40;94.72
71976;BME280;68326;52.124;5.424;2023-03-25T08:09:15;100143.69;;;8.46;95.56
71976;BME280;68326;52.124;5.424;2023-03-25T08:11:42;100145.97;;;8.52;95.72
71976;BME280;68326;52.124;5.424;2023-03-25T08:14:08;100145.97;;;8.52;95.40
71976;BME280;68326;52.124;5.424;2023-03-25T08:16:35;100143.38;;;8.52;93.71
71976;BME280;68326;52.124;5.424;2023-03-25T08:19:01;100144.88;;;8.56;94.37
71976;BME280;68326;52.124;5.424;2023-03-25T08:21:28;100147.31;;;8.59;93.78
71976;BME280;68326;52.124;5.424;2023-03-25T08:23:56;100149.66;;;8.64;94.28
71976;BME280;68326;52.124;5.424;2023-03-25T08:26:31;100156.69;;;8.62;93.78
71976;BME280;68326;52.124;5.424;2023-03-25T08:29:00;100160.28;;;8.59;94.58
71976;BME280;68326;52.124;5.424;2023-03-25T08:31:30;100151.84;;;8.55;94.28
71976;BME280;68326;52.124;5.424;2023-03-25T08:33:58;100165.81;;;8.53;94.67
71976;BME280;68326;52.124;5.424;2023-03-25T08:36:24;100157.69;;;8.59;95.25
71976;BME280;68326;52.124;5.424;2023-03-25T08:38:51;100169.84;;;8.74;95.74
71976;BME280;68326;52.124;5.424;2023-03-25T08:41:18;100170.28;;;8.83;94.26
71976;BME280;68326;52.124;5.424;2023-03-25T08:43:45;100164.31;;;8.81;94.64
71976;BME280;68326;52.124;5.424;2023-03-25T08:46:12;100158.47;;;8.77;94.29
71976;BME280;68326;52.124;5.424;2023-03-25T08:48:39;100155.88;;;8.77;93.55
71976;BME280;68326;52.124;5.424;2023-03-25T08:51:06;100158.31;;;8.80;92.96
71976;BME280;68326;52.124;5.424;2023-03-25T08:53:33;100166.75;;;8.84;94.37
71976;BME280;68326;52.124;5.424;2023-03-25T08:56:00;100175.22;;;9.03;93.03
71976;BME280;68326;52.124;5.424;2023-03-25T08:58:26;100163.16;;;9.18;93.34
71976;BME280;68326;52.124;5.424;2023-03-25T09:00:54;100168.72;;;9.26;93.36
71976;BME280;68326;52.124;5.424;2023-03-25T09:03:22;100172.97;;;9.43;92.05
71976;BME280;68326;52.124;5.424;2023-03-25T09:05:49;100178.66;;;9.50;91.53
71976;BME280;68326;52.124;5.424;2023-03-25T09:08:16;100166.34;;;9.53;91.81
71976;BME280;68326;52.124;5.424;2023-03-25T09:10:43;100157.66;;;9.54;90.71
71976;BME280;68326;52.124;5.424;2023-03-25T09:13:09;100170.44;;;9.57;90.57
71976;BME280;68326;52.124;5.424;2023-03-25T09:15:36;100165.81;;;9.63;90.91
71976;BME280;68326;52.124;5.424;2023-03-25T09:18:03;100168.91;;;9.69;89.98
71976;BME280;68326;52.124;5.424;2023-03-25T09:20:32;100165.66;;;9.66;88.71
71976;BME280;68326;52.124;5.424;2023-03-25T09:22:58;100173.53;;;9.64;89.78
71976;BME280;68326;52.124;5.424;2023-03-25T09:25:25;100178.56;;;9.67;89.97
71976;BME280;68326;52.124;5.424;2023-03-25T09:27:52;100178.97;;;9.75;90.11
71976;BME280;68326;52.124;5.424;2023-03-25T09:30:18;100172.81;;;9.76;88.85
71976;BME280;68326;52.124;5.424;2023-03-25T09:32:45;100176.94;;;9.80;89.67
71976;BME280;68326;52.124;5.424;2023-03-25T09:35:11;100181.63;;;10.04;88.48
71976;BME280;68326;52.124;5.424;2023-03-25T09:37:38;100177.28;;;10.19;88.25
71976;BME280;68326;52.124;5.424;2023-03-25T09:40:05;100180.56;;;10.37;88.32
71976;BME280;68326;52.124;5.424;2023-03-25T09:42:59;100173.66;;;10.65;88.10
71976;BME280;68326;52.124;5.424;2023-03-25T09:50:46;100190.28;;;10.19;86.42
71976;BME280;68326;52.124;5.424;2023-03-25T09:55:41;100171.28;;;10.03;84.97
71976;BME280;68326;52.124;5.424;2023-03-25T09:58:33;100181.63;;;10.04;87.02
71976;BME280;68326;52.124;5.424;2023-03-25T10:04:17;100188.38;;;10.07;85.67
71976;BME280;68326;52.124;5.424;2023-03-25T10:15:27;100193.81;;;10.18;84.96
71976;BME280;68326;52.124;5.424;2023-03-25T10:21:39;100191.28;;;10.16;85.23
71976;BME280;68326;52.124;5.424;2023-03-25T10:23:41;100198.91;;;10.19;83.97
71976;BME280;68326;52.124;5.424;2023-03-25T10:26:12;100209.22;;;10.21;85.75
71976;BME280;68326;52.124;5.424;2023-03-25T10:28:50;100204.75;;;10.23;84.24
71976;BME280;68326;52.124;5.424;2023-03-25T10:31:21;100194.28;;;10.25;83.90
71976;BME280;68326;52.124;5.424;2023-03-25T10:33:53;100206.16;;;10.29;83.99
71976;BME280;68326;52.124;5.424;2023-03-25T10:36:31;100205.19;;;10.31;83.48
71976;BME280;68326;52.124;5.424;2023-03-25T10:39:00;100196.28;;;10.35;82.63
71976;BME280;68326;52.124;5.424;2023-03-25T10:41:35;100194.41;;;10.37;82.23
71976;BME280;68326;52.124;5.424;2023-03-25T10:44:07;100207.81;;;10.46;81.07
71976;BME280;68326;52.124;5.424;2023-03-25T10:46:56;100240.31;;;10.53;81.38
71976;BME280;68326;52.124;5.424;2023-03-25T10:49:27;100203.06;;;10.52;79.68
71976;BME280;68326;52.124;5.424;2023-03-25T10:51:55;100204.09;;;10.50;79.73
71976;BME280;68326;52.124;5.424;2023-03-25T10:54:30;100207.91;;;10.58;79.83
71976;BME280;68326;52.124;5.424;2023-03-25T10:57:02;100205.84;;;10.64;79.53
71976;BME280;68326;52.124;5.424;2023-03-25T10:59:38;100207.69;;;10.61;80.00
71976;BME280;68326;52.124;5.424;2023-03-25T11:02:19;100232.19;;;10.43;80.80
71976;BME280;68326;52.124;5.424;2023-03-25T11:04:49;100225.03;;;10.32;81.81
71976;BME280;68326;52.124;5.424;2023-03-25T11:07:34;100238.63;;;10.37;81.67
71976;BME280;68326;52.124;5.424;2023-03-25T11:10:25;100238.91;;;10.33;82.24
71976;BME280;68326;52.124;5.424;2023-03-25T11:12:54;100239.72;;;10.33;81.21
71976;BME280;68326;52.124;5.424;2023-03-25T11:15:31;100232.41;;;10.40;81.61
71976;BME280;68326;52.124;5.424;2023-03-25T11:18:02;100232.13;;;10.45;80.36
71976;BME280;68326;52.124;5.424;2023-03-25T11:20:37;100231.38;;;10.43;81.00
71976;BME280;68326;52.124;5.424;2023-03-25T11:23:07;100239.72;;;10.33;82.67
71976;BME280;68326;52.124;5.424;2023-03-25T11:25:39;100223.03;;;10.37;82.18
71976;BME280;68326;52.124;5.424;2023-03-25T11:28:16;100228.78;;;10.71;80.35
71976;BME280;68326;52.124;5.424;2023-03-25T11:31:07;100227.84;;;10.72;79.35
71976;BME280;68326;52.124;5.424;2023-03-25T11:33:35;100237.16;;;10.62;80.20
71976;BME280;68326;52.124;5.424;2023-03-25T11:38:45;100244.03;;;10.49;79.50
71976;BME280;68326;52.124;5.424;2023-03-25T11:41:13;100246.19;;;10.56;80.84
71976;BME280;68326;52.124;5.424;2023-03-25T11:43:40;100238.91;;;10.61;78.90
71976;BME280;68326;52.124;5.424;2023-03-25T11:46:11;100240.97;;;10.56;79.23
71976;BME280;68326;52.124;5.424;2023-03-25T11:48:40;100233.91;;;10.58;79.28
71976;BME280;68326;52.124;5.424;2023-03-25T11:51:19;100240.41;;;10.80;78.20
71976;BME280;68326;52.124;5.424;2023-03-25T11:53:58;100231.66;;;10.95;77.47
71976;BME280;68326;52.124;5.424;2023-03-25T11:56:34;100219.84;;;10.90;77.44
71976;BME280;68326;52.124;5.424;2023-03-25T11:59:07;100246.44;;;10.80;77.24
71976;BME280;68326;52.124;5.424;2023-03-25T12:01:43;100229.63;;;10.72;78.22
71976;BME280;68326;52.124;5.424;2023-03-25T12:04:17;100243.84;;;10.80;79.42
71976;BME280;68326;52.124;5.424;2023-03-25T12:06:56;100213.72;;;10.91;78.36
71976;BME280;68326;52.124;5.424;2023-03-25T12:09:28;100224.59;;;10.83;78.74
71976;BME280;68326;52.124;5.424;2023-03-25T12:17:50;100237.28;;;11.16;77.66
71976;BME280;68326;52.124;5.424;2023-03-25T12:20:26;100228.09;;;11.11;75.86
71976;BME280;68326;52.124;5.424;2023-03-25T12:28:45;100225.41;;;11.67;73.91
71976;BME280;68326;52.124;5.424;2023-03-25T12:53:34;100217.41;;;11.70;70.78
71976;BME280;68326;52.124;5.424;2023-03-25T12:58:58;100208.31;;;12.15;69.96
71976;BME280;68326;52.124;5.424;2023-03-25T13:02:00;100223.38;;;12.24;68.95
71976;BME280;68326;52.124;5.424;2023-03-25T13:07:18;100224.63;;;12.32;67.36
71976;BME280;68326;52.124;5.424;2023-03-25T13:10:17;100221.69;;;12.49;67.68
71976;BME280;68326;52.124;5.424;2023-03-25T13:15:17;100224.19;;;12.63;66.58
71976;BME280;68326;52.124;5.424;2023-03-25T13:18:02;100216.44;;;12.75;65.95
71976;BME280;68326;52.124;5.424;2023-03-25T13:20:38;100224.19;;;12.76;65.35
71976;BME280;68326;52.124;5.424;2023-03-25T13:23:11;100231.06;;;12.90;65.07
71976;BME280;68326;52.124;5.424;2023-03-25T13:26:10;100229.19;;;12.79;65.25
71976;BME280;68326;52.124;5.424;2023-03-25T13:31:14;100234.72;;;12.62;66.99
71976;BME280;68326;52.124;5.424;2023-03-25T13:33:46;100250.81;;;12.56;66.04
71976;BME280;68326;52.124;5.424;2023-03-25T13:36:25;100248.09;;;12.57;68.06
71976;BME280;68326;52.124;5.424;2023-03-25T13:38:56;100242.13;;;12.81;66.62
71976;BME280;68326;52.124;5.424;2023-03-25T13:41:29;100253.00;;;12.62;66.17
71976;BME280;68326;52.124;5.424;2023-03-25T13:44:34;100243.41;;;12.62;68.34
71976;BME280;68326;52.124;5.424;2023-03-25T13:47:22;100261.97;;;12.45;67.60
71976;BME280;68326;52.124;5.424;2023-03-25T13:49:55;100244.75;;;12.42;66.07
71976;BME280;68326;52.124;5.424;2023-03-25T13:52:25;100247.28;;;12.31;66.50
71976;BME280;68326;52.124;5.424;2023-03-25T13:55:00;100250.63;;;12.33;66.40
71976;BME280;68326;52.124;5.424;2023-03-25T14:03:17;100267.50;;;12.28;66.08
71976;BME280;68326;52.124;5.424;2023-03-25T14:11:24;100324.34;;;11.27;70.67
71976;BME280;68326;52.124;5.424;2023-03-25T14:13:55;100320.97;;;10.81;75.59
71976;BME280;68326;52.124;5.424;2023-03-25T14:16:28;100334.78;;;10.53;79.34
71976;BME280;68326;52.124;5.424;2023-03-25T14:19:01;100339.16;;;10.23;79.28
71976;BME280;68326;52.124;5.424;2023-03-25T14:27:00;100326.16;;;10.07;81.24
71976;BME280;68326;52.124;5.424;2023-03-25T14:29:35;100331.56;;;10.64;82.14
71976;BME280;68326;52.124;5.424;2023-03-25T14:32:30;100316.81;;;10.93;82.24
71976;BME280;68326;52.124;5.424;2023-03-25T14:43:38;100322.25;;;11.60;78.55
71976;BME280;68326;52.124;5.424;2023-03-25T14:46:13;100323.13;;;11.88;77.24
71976;BME280;68326;52.124;5.424;2023-03-25T14:48:51;100319.38;;;11.92;75.37
71976;BME280;68326;52.124;5.424;2023-03-25T14:54:21;100314.22;;;11.63;75.41
71976;BME280;68326;52.124;5.424;2023-03-25T14:59:30;100316.78;;;11.78;74.12
71976;BME280;68326;52.124;5.424;2023-03-25T15:02:19;100313.91;;;11.68;73.22
71976;BME280;68326;52.124;5.424;2023-03-25T15:04:55;100321.44;;;11.46;72.80
71976;BME280;68326;52.124;5.424;2023-03-25T15:07:45;100323.47;;;11.40;73.29
71976;BME280;68326;52.124;5.424;2023-03-25T15:10:31;100317.06;;;11.32;72.57
71976;BME280;68326;52.124;5.424;2023-03-25T15:13:05;100326.94;;;11.27;71.93
71976;BME280;68326;52.124;5.424;2023-03-25T15:18:11;100314.94;;;11.24;72.26
71976;BME280;68326;52.124;5.424;2023-03-25T15:20:37;100326.38;;;11.21;71.69
71976;BME280;68326;52.124;5.424;2023-03-25T15:23:26;100387.78;;;11.26;72.38
71976;BME280;68326;52.124;5.424;2023-03-25T15:25:57;100429.34;;;10.68;73.02
71976;BME280;68326;52.124;5.424;2023-03-25T15:28:34;100415.94;;;9.65;74.72
71976;BME280;68326;52.124;5.424;2023-03-25T15:31:28;100404.13;;;8.75;79.39
71976;BME280;68326;52.124;5.424;2023-03-25T15:51:38;100431.47;;;8.09;88.27
71976;BME280;68326;52.124;5.424;2023-03-25T15:56:40;100442.81;;;8.07;88.55
71976;BME280;68326;52.124;5.424;2023-03-25T15:59:22;100434.00;;;8.11;88.57
71976;BME280;68326;52.124;5.424;2023-03-25T16:01:53;100437.22;;;8.16;88.54
71976;BME280;68326;52.124;5.424;2023-03-25T16:04:28;100434.47;;;8.19;88.80